Time;durP1;ratioP1;P1;durP2;ratioP2;P2;SDS_P1;SDS_P2;PMS_P1;PMS_P2;Temp;Humidity;BMP_temperature;BMP_pressure;BME280_temperature;BME280_humidity;BME280_pressure;Samples;Min_cycle;Max_cycle;Signal;HPM_P1;HPM_P2
2024/01/04 00:02:30;;;;;;;15.07;5.70;;;;;;;6.94;100.00;99343.19;5286386;28;20028;-73
2024/01/04 00:05:03;;;;;;;20.85;6.78;;;;;;;6.96;100.00;99350.94;5286671;28;20554;-73
2024/01/04 00:07:34;;;;;;;13.32;6.18;;;;;;;6.96;100.00;99353.53;5284823;28;20525;-72
2024/01/04 00:10:06;;;;;;;12.03;5.37;;;;;;;7.01;100.00;99364.66;5286414;28;20033;-72
2024/01/04 00:12:38;;;;;;;13.18;6.35;;;;;;;6.99;100.00;99363.81;5285726;28;20079;-72
2024/01/04 00:15:09;;;;;;;16.40;5.53;;;;;;;6.98;100.00;99372.47;5285736;28;20048;-73
2024/01/04 00:17:41;;;;;;;15.53;6.07;;;;;;;7.02;100.00;99382.75;5286297;28;20428;-72
2024/01/04 00:20:12;;;;;;;19.40;4.80;;;;;;;6.98;100.00;99388.88;5285787;28;20144;-73
2024/01/04 00:22:44;;;;;;;21.50;5.57;;;;;;;6.97;100.00;99386.31;5285868;28;20032;-72
2024/01/04 00:25:15;;;;;;;13.83;6.10;;;;;;;6.94;100.00;99398.44;5285988;28;20024;-71
2024/01/04 00:27:46;;;;;;;14.23;5.53;;;;;;;6.96;100.00;99411.38;5284855;28;20036;-72
2024/01/04 00:30:18;;;;;;;25.17;5.83;;;;;;;6.94;100.00;99416.59;5285332;28;20037;-73
2024/01/04 00:32:49;;;;;;;13.23;5.10;;;;;;;6.93;100.00;99421.78;5285863;28;20408;-73
2024/01/04 00:35:21;;;;;;;15.83;5.73;;;;;;;6.95;100.00;99427.78;5285393;28;20028;-72
2024/01/04 00:37:53;;;;;;;14.23;5.13;;;;;;;6.99;100.00;99444.13;5285517;28;20033;-73
2024/01/04 00:40:24;;;;;;;13.50;6.05;;;;;;;7.01;100.00;99444.97;5285156;28;20028;-73
2024/01/04 00:42:57;;;;;;;11.70;5.57;;;;;;;6.99;100.00;99444.13;5284633;28;20468;-73
2024/01/04 00:45:28;;;;;;;12.18;4.40;;;;;;;7.02;100.00;99459.59;5285246;28;20048;-74
2024/01/04 00:47:59;;;;;;;13.80;4.90;;;;;;;7.03;100.00;99463.91;5285316;28;20468;-72
2024/01/04 00:50:31;;;;;;;12.00;4.40;;;;;;;7.01;100.00;99463.09;5285524;28;20036;-72
2024/01/04 00:53:03;;;;;;;12.20;5.07;;;;;;;7.05;100.00;99477.69;5285580;28;20029;-72
2024/01/04 00:55:34;;;;;;;16.17;4.20;;;;;;;6.99;100.00;99475.22;5285192;28;20041;-73
2024/01/04 00:58:05;;;;;;;9.60;4.63;;;;;;;6.98;100.00;99479.56;5285317;28;20036;-73
2024/01/04 01:00:37;;;;;;;10.80;3.67;;;;;;;6.96;100.00;99483.91;5283901;28;20080;-73
2024/01/04 01:03:08;;;;;;;11.63;4.13;;;;;;;6.96;100.00;99490.84;5285076;28;20064;-73
2024/01/04 01:05:40;;;;;;;8.80;4.83;;;;;;;6.93;100.00;99496.91;5285230;28;20055;-73
2024/01/04 01:08:11;;;;;;;11.07;4.60;;;;;;;6.99;100.00;99508.88;5285031;28;20040;-72
2024/01/04 01:10:42;;;;;;;7.73;3.80;;;;;;;6.97;100.00;99502.88;5284093;28;20039;-73
2024/01/04 01:13:20;;;;;;;16.23;5.00;;;;;;;6.96;100.00;99511.56;5285319;28;20480;-73
2024/01/04 01:15:51;;;;;;;11.77;4.03;;;;;;;6.97;100.00;99516.72;5284866;28;20039;-73
2024/01/04 01:18:22;;;;;;;11.03;4.47;;;;;;;6.93;100.00;99520.22;5285363;28;20044;-73
2024/01/04 01:20:54;;;;;;;8.03;4.10;;;;;;;6.92;100.00;99511.63;5284820;28;20039;-74
2024/01/04 01:23:26;;;;;;;12.07;4.50;;;;;;;6.92;100.00;99526.28;5285262;28;20560;-72
2024/01/04 01:25:57;;;;;;;8.60;4.73;;;;;;;6.97;100.00;99529.69;5285215;28;20048;-73
2024/01/04 01:28:29;;;;;;;7.80;4.80;;;;;;;6.97;100.00;99531.38;5284751;28;20032;-74
2024/01/04 01:31:01;;;;;;;13.27;5.13;;;;;;;6.96;100.00;99529.69;5284578;28;20086;-74
2024/01/04 01:33:33;;;;;;;14.32;5.45;;;;;;;6.96;100.00;99530.53;5284497;28;20028;-73
2024/01/04 01:36:06;;;;;;;10.57;4.40;;;;;;;6.93;100.00;99548.72;5284957;28;20037;-74
2024/01/04 01:38:38;;;;;;;13.82;4.70;;;;;;;6.96;100.00;99555.63;5284762;28;20078;-74
2024/01/04 01:41:09;;;;;;;11.37;4.67;;;;;;;6.94;100.00;99556.47;5285238;28;20032;-73
2024/01/04 01:43:41;;;;;;;13.60;4.00;;;;;;;6.96;100.00;99561.63;5284387;28;20529;-73
2024/01/04 01:46:12;;;;;;;12.53;3.73;;;;;;;6.97;100.00;99563.34;5284044;28;20456;-73
2024/01/04 01:48:44;;;;;;;11.40;3.70;;;;;;;6.98;100.00;99577.16;5283373;28;20371;-73
2024/01/04 01:51:15;;;;;;;16.90;5.00;;;;;;;6.98;100.00;99579.75;5283181;28;20033;-74
2024/01/04 01:53:47;;;;;;;12.73;5.53;;;;;;;7.00;100.00;99584.00;5283073;28;20066;-72
2024/01/04 01:56:19;;;;;;;11.73;4.17;;;;;;;7.02;100.00;99587.44;5284042;28;20474;-73
2024/01/04 01:58:51;;;;;;;12.90;4.23;;;;;;;7.00;100.00;99593.53;5283975;28;20108;-73
2024/01/04 02:01:23;;;;;;;15.50;4.60;;;;;;;6.99;100.00;99589.22;5283608;28;20020;-73
2024/01/04 02:03:55;;;;;;;11.50;3.73;;;;;;;6.97;100.00;99598.75;5284295;28;20036;-73
2024/01/04 02:06:26;;;;;;;14.30;4.43;;;;;;;6.96;100.00;99604.84;5283679;28;20119;-73
2024/01/04 02:08:57;;;;;;;13.37;4.27;;;;;;;6.94;100.00;99604.88;5283784;28;20040;-72
2024/01/04 02:11:29;;;;;;;11.57;3.93;;;;;;;6.94;100.00;99600.53;5282495;28;20067;-73
2024/01/04 02:14:00;;;;;;;15.70;3.93;;;;;;;6.91;100.00;99610.94;5283692;28;20094;-73
2024/01/04 02:16:31;;;;;;;10.33;3.50;;;;;;;6.88;100.00;99607.53;5283663;28;20036;-72
2024/01/04 02:19:07;;;;;;;9.63;4.23;;;;;;;6.89;100.00;99623.06;5284295;28;20071;-73
2024/01/04 02:21:38;;;;;;;16.23;4.75;;;;;;;6.92;100.00;99632.50;5282963;28;20468;-73
2024/01/04 02:24:10;;;;;;;14.97;4.17;;;;;;;6.88;100.00;99636.88;5283558;28;20040;-73
2024/01/04 02:26:41;;;;;;;10.87;4.27;;;;;;;6.92;100.00;99643.75;5282961;28;20039;-73
2024/01/04 02:29:12;;;;;;;15.20;4.70;;;;;;;6.96;100.00;99633.34;5281862;28;20028;-73
2024/01/04 02:31:45;;;;;;;13.47;5.30;;;;;;;6.96;100.00;99639.34;5283423;28;20032;-73
2024/01/04 02:34:16;;;;;;;14.15;4.90;;;;;;;6.93;100.00;99642.84;5282939;28;20025;-73
2024/01/04 02:36:48;;;;;;;18.23;5.40;;;;;;;6.94;100.00;99649.75;5282873;28;20441;-74
2024/01/04 02:39:19;;;;;;;12.87;4.60;;;;;;;6.94;100.00;99649.75;5283137;28;20452;-73
2024/01/04 02:41:51;;;;;;;14.40;4.07;;;;;;;6.94;100.00;99657.53;5283153;28;20480;-74
2024/01/04 02:44:22;;;;;;;14.20;4.70;;;;;;;6.95;100.00;99660.97;5283066;28;20040;-73
2024/01/04 02:46:53;;;;;;;20.17;4.53;;;;;;;6.96;100.00;99662.69;5282630;28;20049;-73
2024/01/04 02:49:25;;;;;;;13.53;5.03;;;;;;;6.96;100.00;99661.84;5283364;28;20086;-73
2024/01/04 02:51:56;;;;;;;11.63;4.47;;;;;;;6.88;100.00;99667.97;5283164;28;20475;-73
2024/01/04 02:54:27;;;;;;;12.70;4.77;;;;;;;6.80;100.00;99669.84;5283500;28;20460;-73
2024/01/04 02:56:59;;;;;;;13.37;4.13;;;;;;;6.75;100.00;99667.31;5282898;28;20068;-73
2024/01/04 02:59:30;;;;;;;10.33;3.43;;;;;;;6.69;100.00;99679.50;5283384;28;20052;-73
2024/01/04 03:02:02;;;;;;;6.77;2.97;;;;;;;6.66;100.00;99679.53;5282729;28;20428;-73
2024/01/04 03:04:33;;;;;;;9.50;2.50;;;;;;;6.60;100.00;99684.81;5283012;28;20060;-73
2024/01/04 03:07:04;;;;;;;6.00;3.20;;;;;;;6.57;100.00;99688.31;5282545;28;20025;-73
2024/01/04 03:09:36;;;;;;;7.27;2.73;;;;;;;6.55;100.00;99692.63;5282822;28;20033;-73
2024/01/04 03:12:08;;;;;;;7.27;3.23;;;;;;;6.54;100.00;99690.94;5283231;28;20434;-73
2024/01/04 03:14:39;;;;;;;7.15;2.90;;;;;;;6.53;100.00;99702.16;5283213;28;20376;-72
2024/01/04 03:17:11;;;;;;;5.57;2.50;;;;;;;6.53;100.00;99702.16;5282760;28;20032;-72
2024/01/04 03:19:42;;;;;;;5.00;2.30;;;;;;;6.52;100.00;99705.63;5281291;28;20086;-72
2024/01/04 03:22:14;;;;;;;6.23;2.67;;;;;;;6.50;100.00;99702.19;5282416;28;20056;-72
2024/01/04 03:24:45;;;;;;;6.73;2.73;;;;;;;6.48;100.00;99703.97;5282388;28;20037;-73
2024/01/04 03:27:16;;;;;;;6.00;2.60;;;;;;;6.46;100.00;99714.34;5281011;28;20044;-73
2024/01/04 03:29:50;;;;;;;6.57;3.03;;;;;;;6.48;100.00;99719.50;5281151;28;20111;-73
2024/01/04 03:32:21;;;;;;;6.60;2.80;;;;;;;6.44;100.00;99718.69;5282199;28;20028;-73
2024/01/04 03:34:52;;;;;;;6.53;3.40;;;;;;;6.41;100.00;99710.97;5282930;28;20109;-73
2024/01/04 03:37:24;;;;;;;6.53;3.13;;;;;;;6.35;100.00;99719.63;5286337;28;20356;-72
2024/01/04 03:39:55;;;;;;;7.70;3.50;;;;;;;6.29;100.00;99734.41;5285322;28;20515;-72
2024/01/04 03:42:26;;;;;;;14.10;4.93;;;;;;;6.26;100.00;99730.09;5285246;28;20460;-72
2024/01/04 03:44:58;;;;;;;9.47;3.63;;;;;;;6.23;100.00;99731.88;5286319;28;20463;-73
2024/01/04 03:47:29;;;;;;;10.13;4.60;;;;;;;6.30;100.00;99741.28;5286239;28;20025;-73
2024/01/04 03:50:02;;;;;;;9.77;4.83;;;;;;;6.33;100.00;99742.09;5286523;28;20448;-73
2024/01/04 03:52:33;;;;;;;13.73;5.72;;;;;;;6.33;100.00;99741.25;5286648;28;20056;-73
2024/01/04 03:55:05;;;;;;;9.67;5.07;;;;;;;6.34;100.00;99737.78;5286505;28;20064;-74
2024/01/04 03:57:37;;;;;;;14.63;7.27;;;;;;;6.37;100.00;99748.09;5285223;28;20086;-73
2024/01/04 04:00:09;;;;;;;12.77;6.33;;;;;;;6.37;100.00;99748.09;5285042;28;20067;-73
2024/01/04 04:02:41;;;;;;;11.85;6.15;;;;;;;6.42;100.00;99750.63;5287044;28;20482;-73
2024/01/04 04:05:13;;;;;;;17.60;6.27;;;;;;;6.45;100.00;99754.03;5286176;28;20119;-74
2024/01/04 04:07:44;;;;;;;14.13;7.10;;;;;;;6.51;100.00;99759.13;5286392;28;20103;-73
2024/01/04 04:10:16;;;;;;;9.93;6.87;;;;;;;6.52;100.00;99757.41;5284766;28;20044;-73
2024/01/04 04:12:47;;;;;;;14.97;6.97;;;;;;;6.54;100.00;99755.66;5286705;28;20046;-73
2024/01/04 04:15:19;;;;;;;16.50;7.93;;;;;;;6.58;100.00;99765.09;5285822;28;20060;-73
2024/01/04 04:17:50;;;;;;;12.80;7.40;;;;;;;6.60;100.00;99773.72;5286048;28;20031;-73
2024/01/04 04:20:21;;;;;;;13.63;7.40;;;;;;;6.59;100.00;99774.59;5285998;28;20035;-74
2024/01/04 04:22:53;;;;;;;16.73;9.80;;;;;;;6.58;100.00;99778.03;5285681;28;20079;-73
2024/01/04 04:25:25;;;;;;;18.73;8.70;;;;;;;6.55;100.00;99771.19;5284723;28;20040;-73
2024/01/04 04:27:56;;;;;;;20.38;8.95;;;;;;;6.56;100.00;99787.56;5286155;28;20039;-72
2024/01/04 04:30:29;;;;;;;17.27;8.97;;;;;;;6.53;100.00;99791.03;5286116;28;20032;-73
2024/01/04 04:33:01;;;;;;;14.52;9.95;;;;;;;6.55;100.00;99793.59;5285455;28;20032;-73
2024/01/04 04:35:32;;;;;;;19.30;10.07;;;;;;;6.55;100.00;99796.19;5285924;28;20024;-73
2024/01/04 04:38:04;;;;;;;18.47;9.67;;;;;;;6.54;100.00;99795.34;5268067;28;20048;-73
2024/01/04 04:40:35;;;;;;;19.20;10.57;;;;;;;6.54;100.00;99797.94;5285655;28;20063;-73
2024/01/04 04:43:06;;;;;;;20.57;10.83;;;;;;;6.56;100.00;99793.59;5284192;28;20483;-73
2024/01/04 04:45:38;;;;;;;20.00;9.67;;;;;;;6.58;100.00;99814.28;5285289;28;20045;-73
2024/01/04 04:48:09;;;;;;;18.43;9.60;;;;;;;6.54;100.00;99803.13;5285207;28;20082;-73
2024/01/04 04:50:40;;;;;;;15.50;8.40;;;;;;;6.52;100.00;99812.66;5284133;28;20043;-73
2024/01/04 04:53:11;;;;;;;13.67;8.17;;;;;;;6.53;100.00;99811.75;5285580;28;20467;-72
2024/01/04 04:55:43;;;;;;;20.47;8.30;;;;;;;6.52;100.00;99817.81;5285371;28;20075;-72
2024/01/04 04:58:14;;;;;;;14.90;8.10;;;;;;;6.49;100.00;99817.84;5285402;28;20025;-72
2024/01/04 05:00:46;;;;;;;15.30;8.77;;;;;;;6.48;100.00;99820.47;5285262;28;20107;-72
2024/01/04 05:03:17;;;;;;;15.20;8.73;;;;;;;6.49;100.00;99824.78;5285460;28;20029;-72
2024/01/04 05:05:49;;;;;;;13.40;7.93;;;;;;;6.48;100.00;99818.72;5284992;28;20330;-72
2024/01/04 05:08:20;;;;;;;14.67;8.47;;;;;;;6.49;100.00;99820.44;5285137;28;20123;-72
2024/01/04 05:10:52;;;;;;;16.00;9.60;;;;;;;6.46;100.00;99825.66;5285351;28;20110;-72
2024/01/04 05:13:23;;;;;;;17.77;10.53;;;;;;;6.48;100.00;99821.31;5285030;28;20027;-72
2024/01/04 05:15:54;;;;;;;15.40;9.93;;;;;;;6.48;100.00;99831.66;5283612;28;20067;-73
2024/01/04 05:18:26;;;;;;;19.17;12.33;;;;;;;6.43;100.00;99835.19;5284950;28;20033;-73
2024/01/04 05:20:58;;;;;;;20.87;11.53;;;;;;;6.41;100.00;99840.38;5285033;28;20143;-73
2024/01/04 05:23:29;;;;;;;17.97;11.33;;;;;;;6.35;100.00;99837.88;5284901;28;20051;-73
2024/01/04 05:26:00;;;;;;;19.37;12.17;;;;;;;6.27;100.00;99840.53;5284449;28;20784;-72
2024/01/04 05:28:32;;;;;;;24.07;12.77;;;;;;;6.16;100.00;99842.38;5284207;28;20024;-72
2024/01/04 05:31:03;;;;;;;16.03;11.30;;;;;;;6.18;100.00;99853.56;5284487;28;20060;-72
2024/01/04 05:33:35;;;;;;;17.27;11.93;;;;;;;6.16;100.00;99861.31;5284973;28;20036;-73
2024/01/04 05:36:06;;;;;;;18.30;10.33;;;;;;;6.20;100.00;99849.25;5283191;28;20475;-72
2024/01/04 05:38:37;;;;;;;16.47;9.73;;;;;;;6.16;100.00;99856.16;5284817;28;20037;-73
2024/01/04 05:41:09;;;;;;;15.73;9.67;;;;;;;6.16;100.00;99860.47;5284859;28;20113;-73
2024/01/04 05:43:41;;;;;;;12.88;8.02;;;;;;;6.14;100.00;99867.41;5284399;28;20082;-71
2024/01/04 05:46:12;;;;;;;13.13;6.47;;;;;;;6.10;100.00;99860.53;5284351;28;20345;-72
2024/01/04 05:48:44;;;;;;;9.37;6.20;;;;;;;6.08;100.00;99876.06;5284118;28;20052;-72
2024/01/04 05:51:15;;;;;;;10.87;6.00;;;;;;;6.05;100.00;99876.09;5284197;28;20056;-72
2024/01/04 05:53:46;;;;;;;10.13;5.30;;;;;;;6.01;100.00;99887.34;5283954;28;20052;-73
2024/01/04 05:56:18;;;;;;;11.63;4.60;;;;;;;5.99;100.00;99886.53;5283960;28;20374;-72
2024/01/04 05:58:49;;;;;;;11.03;5.13;;;;;;;5.99;100.00;99894.28;5283741;28;20033;-73
2024/01/04 06:01:21;;;;;;;8.53;4.13;;;;;;;6.01;100.00;99906.31;5283690;28;20060;-72
2024/01/04 06:03:52;;;;;;;9.63;4.83;;;;;;;6.02;100.00;99902.88;5283747;28;20036;-72
2024/01/04 06:06:24;;;;;;;9.07;4.70;;;;;;;6.04;100.00;99905.44;5283581;28;20475;-72
2024/01/04 06:08:55;;;;;;;12.30;4.83;;;;;;;6.08;100.00;99909.69;5284067;28;20029;-72
2024/01/04 06:11:27;;;;;;;11.00;5.13;;;;;;;6.10;100.00;99904.50;5283905;28;20383;-72
2024/01/04 06:13:58;;;;;;;11.23;5.43;;;;;;;6.10;100.00;99913.16;5283906;28;20105;-72
2024/01/04 06:16:29;;;;;;;11.03;5.47;;;;;;;6.12;100.00;99926.94;5284064;28;20032;-72
2024/01/04 06:19:01;;;;;;;12.30;6.10;;;;;;;6.14;100.00;99926.91;5284206;28;20021;-72
2024/01/04 06:21:32;;;;;;;16.53;6.37;;;;;;;6.15;100.00;99931.19;5284397;28;20119;-72
2024/01/04 06:24:04;;;;;;;10.53;5.60;;;;;;;6.16;100.00;99936.38;5282150;28;20032;-71
2024/01/04 06:26:35;;;;;;;13.73;6.77;;;;;;;6.21;100.00;99931.16;5283506;28;20024;-71
2024/01/04 06:29:07;;;;;;;13.60;7.03;;;;;;;6.22;100.00;99932.03;5283520;28;20090;-71
2024/01/04 06:31:38;;;;;;;10.30;6.80;;;;;;;6.20;100.00;99932.91;5283704;28;20033;-71
2024/01/04 06:34:10;;;;;;;13.87;6.97;;;;;;;6.19;100.00;99936.34;5282119;28;20036;-72
2024/01/04 06:36:41;;;;;;;13.67;7.77;;;;;;;6.20;100.00;99932.91;5283887;28;20060;-72
2024/01/04 06:39:13;;;;;;;15.30;7.60;;;;;;;6.22;100.00;99940.66;5282003;28;20207;-72
2024/01/04 06:41:44;;;;;;;11.97;6.73;;;;;;;6.23;100.00;99938.91;5283991;28;20028;-71
2024/01/04 06:44:16;;;;;;;14.60;7.73;;;;;;;6.23;100.00;99951.84;5283203;28;20114;-71
2024/01/04 06:46:47;;;;;;;16.13;8.40;;;;;;;6.25;100.00;99942.34;5283284;28;20052;-72
2024/01/04 06:49:19;;;;;;;12.17;7.60;;;;;;;6.19;100.00;99949.28;5283267;28;20162;-72
2024/01/04 06:51:50;;;;;;;15.60;7.63;;;;;;;6.13;100.00;99964.00;5283290;28;20111;-72
2024/01/04 06:54:22;;;;;;;17.10;8.37;;;;;;;6.05;100.00;99964.06;5283298;28;20123;-71
2024/01/04 06:56:53;;;;;;;11.53;7.73;;;;;;;6.03;100.00;99974.41;5283266;28;20036;-72
2024/01/04 06:59:24;;;;;;;13.00;7.30;;;;;;;6.04;100.00;99977.88;5283156;28;20063;-71
2024/01/04 07:01:56;;;;;;;15.93;8.37;;;;;;;6.03;100.00;99981.31;5283490;28;20031;-72
2024/01/04 07:04:27;;;;;;;16.03;7.33;;;;;;;6.05;100.00;99987.34;5283735;28;20066;-72
2024/01/04 07:06:59;;;;;;;13.87;7.27;;;;;;;6.10;100.00;99990.78;5282599;28;20029;-71
2024/01/04 07:09:30;;;;;;;15.30;7.87;;;;;;;6.09;100.00;99991.63;5282210;28;20345;-73
2024/01/04 07:12:02;;;;;;;16.37;7.97;;;;;;;6.12;100.00;99998.53;5282928;28;20087;-72
2024/01/04 07:14:38;;;;;;;13.83;7.30;;;;;;;6.13;100.00;100000.22;5283123;28;20064;-71
2024/01/04 07:17:09;;;;;;;17.08;7.35;;;;;;;6.13;100.00;100002.81;5283013;28;20142;-71
2024/01/04 07:19:42;;;;;;;14.90;7.10;;;;;;;6.16;100.00;100001.06;5282980;28;20025;-71
2024/01/04 07:22:17;;;;;;;16.95;8.60;;;;;;;6.19;100.00;100008.81;5282706;28;20472;-71
2024/01/04 07:24:48;;;;;;;17.38;7.88;;;;;;;6.18;100.00;100004.53;5282514;28;20383;-71
2024/01/04 07:27:20;;;;;;;14.57;8.50;;;;;;;6.19;100.00;100003.63;5282802;28;20029;-71
2024/01/04 07:29:51;;;;;;;15.60;9.02;;;;;;;6.22;100.00;100013.13;5282876;28;20115;-71
2024/01/04 07:32:23;;;;;;;17.53;8.47;;;;;;;6.19;100.00;100013.97;5282910;28;20143;-72
2024/01/04 07:34:54;;;;;;;14.13;8.37;;;;;;;6.17;100.00;100012.28;5282773;28;20033;-71
2024/01/04 07:37:25;;;;;;;20.27;10.47;;;;;;;6.14;100.00;100023.50;5282697;28;20139;-72
2024/01/04 07:39:57;;;;;;;18.43;9.77;;;;;;;6.08;100.00;100025.28;5282716;28;20028;-72
2024/01/04 07:42:28;;;;;;;17.97;11.13;;;;;;;6.01;100.00;100014.13;5282905;28;20478;-72
2024/01/04 07:44:59;;;;;;;19.27;11.37;;;;;;;5.98;100.00;100016.72;5283015;28;20025;-72
2024/01/04 07:47:31;;;;;;;23.23;12.20;;;;;;;5.93;100.00;100021.03;5283179;28;20048;-72
2024/01/04 07:50:04;;;;;;;23.03;13.30;;;;;;;5.97;100.00;100030.53;5282608;28;20029;-73
2024/01/04 07:52:35;;;;;;;;;;;;;;;5.91;100.00;100036.56;5283360;28;20052;-72
2024/01/04 07:55:07;;;;;;;24.58;13.23;;;;;;;5.99;100.00;100052.09;5282516;28;20013;-72
2024/01/04 07:57:38;;;;;;;22.33;13.13;;;;;;;5.96;100.00;100047.78;5282771;28;20029;-72
2024/01/04 08:00:10;;;;;;;18.63;12.20;;;;;;;5.96;100.00;100054.66;5281792;28;20064;-72
2024/01/04 08:02:41;;;;;;;29.90;13.57;;;;;;;5.97;100.00;100057.28;5282364;28;20484;-73
2024/01/04 08:05:13;;;;;;;29.90;13.00;;;;;;;5.99;100.00;100062.44;5282647;28;20032;-72
2024/01/04 08:07:44;;;;;;;22.60;11.40;;;;;;;6.02;100.00;100071.03;5281346;28;20116;-72
2024/01/04 08:10:16;;;;;;;19.27;11.93;;;;;;;6.03;100.00;100070.16;5281297;28;20029;-72
2024/01/04 08:12:47;;;;;;;24.43;12.67;;;;;;;6.05;100.00;100069.28;5281174;28;20166;-72
2024/01/04 08:15:19;;;;;;;20.50;10.93;;;;;;;6.07;100.00;100071.00;5282384;28;20131;-73
2024/01/04 08:17:50;;;;;;;16.53;8.90;;;;;;;6.12;100.00;100081.34;5282459;28;20042;-72
2024/01/04 08:20:21;;;;;;;15.57;8.37;;;;;;;6.13;100.00;100077.88;5283457;28;20020;-72
2024/01/04 08:22:53;;;;;;;12.50;6.93;;;;;;;6.16;100.00;100077.84;5286215;28;20032;-72
2024/01/04 08:25:24;;;;;;;21.37;7.33;;;;;;;6.17;100.00;100075.25;5285892;28;20029;-72
2024/01/04 08:27:56;;;;;;;14.13;6.90;;;;;;;6.19;100.00;100081.25;5286538;28;20345;-72
2024/01/04 08:30:27;;;;;;;18.47;6.67;;;;;;;6.20;100.00;100080.41;5286002;28;20021;-72
2024/01/04 08:32:58;;;;;;;17.27;6.10;;;;;;;6.24;100.00;100077.81;5285767;28;20032;-72
2024/01/04 08:35:30;;;;;;;14.87;6.53;;;;;;;6.24;100.00;100082.97;5285929;28;20025;-72
2024/01/04 08:38:01;;;;;;;10.10;5.70;;;;;;;6.24;100.00;100090.75;5286387;28;20082;-71
2024/01/04 08:40:38;;;;;;;9.53;5.30;;;;;;;6.23;100.00;100087.31;5285813;28;20035;-72
2024/01/04 08:43:10;;;;;;;11.30;5.15;;;;;;;6.19;100.00;100088.19;5285586;28;20073;-73
2024/01/04 08:45:42;;;;;;;11.95;5.68;;;;;;;6.16;100.00;100085.59;5285145;28;20475;-72
2024/01/04 08:48:14;;;;;;;7.30;4.30;;;;;;;6.11;100.00;100090.81;5285604;28;20140;-72
2024/01/04 08:50:45;;;;;;;7.00;4.13;;;;;;;6.12;100.00;100094.28;5285290;28;20099;-72
2024/01/04 08:53:20;;;;;;;10.37;4.33;;;;;;;6.14;100.00;100098.56;5285548;28;20090;-73
2024/01/04 08:55:51;;;;;;;12.88;4.60;;;;;;;6.15;100.00;100097.69;5285356;28;20468;-73
2024/01/04 08:58:23;;;;;;;6.83;4.00;;;;;;;6.15;100.00;100102.00;5286022;28;20146;-72
2024/01/04 09:00:54;;;;;;;5.40;3.63;;;;;;;6.17;100.00;100111.47;5285840;28;20064;-73
2024/01/04 09:03:25;;;;;;;8.87;4.20;;;;;;;6.16;100.00;100106.31;5285587;28;20074;-72
2024/01/04 09:05:57;;;;;;;9.37;3.80;;;;;;;6.16;100.00;100116.66;5285238;28;20209;-74
2024/01/04 09:08:29;;;;;;;5.63;3.40;;;;;;;6.13;100.00;100116.69;5284338;28;20037;-72
2024/01/04 09:11:01;;;;;;;9.57;3.97;;;;;;;6.12;100.00;100110.66;5284431;28;20134;-72
2024/01/04 09:13:33;;;;;;;5.80;3.22;;;;;;;6.11;100.00;100113.25;5285104;28;20037;-73
2024/01/04 09:16:05;;;;;;;5.10;2.90;;;;;;;6.11;100.00;100124.44;5285226;28;20092;-73
2024/01/04 09:18:36;;;;;;;7.17;2.80;;;;;;;6.15;100.00;100128.75;5285729;28;20165;-73
2024/01/04 09:21:09;;;;;;;3.93;2.20;;;;;;;6.15;100.00;100126.16;5285073;28;20036;-72
2024/01/04 09:23:40;;;;;;;5.25;2.22;;;;;;;6.16;100.00;100133.03;5285478;28;20357;-72
2024/01/04 09:26:11;;;;;;;5.83;2.30;;;;;;;6.17;100.00;100131.34;5284794;28;20134;-72
2024/01/04 09:28:43;;;;;;;6.80;3.40;;;;;;;6.24;100.00;100134.75;5284541;28;20111;-72
2024/01/04 09:31:15;;;;;;;5.43;2.53;;;;;;;6.33;100.00;100139.88;5284288;28;20525;-72
2024/01/04 09:33:46;;;;;;;3.55;2.47;;;;;;;6.42;100.00;100141.53;5284664;28;20028;-72
2024/01/04 09:36:17;;;;;;;4.83;2.50;;;;;;;6.41;100.00;100150.16;5284257;28;20082;-74
2024/01/04 09:38:50;;;;;;;4.03;2.50;;;;;;;6.44;100.00;100152.75;5284357;28;20485;-71
2024/01/04 09:41:29;;;;;;;5.20;2.42;;;;;;;6.48;100.00;100155.31;5284616;28;20068;-71
2024/01/04 09:44:05;;;;;;;6.05;2.65;;;;;;;6.41;100.00;100161.41;5284217;28;20062;-71
2024/01/04 09:46:37;;;;;;;6.70;2.60;;;;;;;6.42;100.00;100157.91;5282993;28;20559;-71
2024/01/04 09:49:11;;;;;;;5.95;3.03;;;;;;;6.39;100.00;100163.13;5284151;28;20040;-71
2024/01/04 09:51:42;;;;;;;5.88;2.90;;;;;;;6.38;100.00;100166.59;5284195;28;20132;-71
2024/01/04 09:54:16;;;;;;;7.07;2.97;;;;;;;6.36;100.00;100166.59;5284209;28;20119;-71
2024/01/04 09:56:50;;;;;;;4.60;2.60;;;;;;;6.37;100.00;100177.81;5284181;28;20127;-71
2024/01/04 09:59:21;;;;;;;5.68;2.80;;;;;;;6.33;100.00;100181.28;5283984;28;20036;-72
2024/01/04 10:01:54;;;;;;;5.47;2.97;;;;;;;6.30;100.00;100182.16;5283775;28;20029;-71
2024/01/04 10:04:27;;;;;;;6.18;3.20;;;;;;;6.31;100.00;100183.88;5284182;28;20482;-71
2024/01/04 10:07:06;;;;;;;5.55;3.25;;;;;;;6.33;100.00;100183.88;5283520;28;20041;-71
2024/01/04 10:09:47;;;;;;;8.52;3.72;;;;;;;6.35;100.00;100195.94;5284114;28;20070;-72
2024/01/04 10:12:18;;;;;;;8.70;4.15;;;;;;;6.35;100.00;100202.84;5284067;28;20036;-72
2024/01/04 10:14:50;;;;;;;7.77;4.27;;;;;;;6.34;100.00;100196.81;5283750;28;20029;-71
2024/01/04 10:17:21;;;;;;;9.53;4.37;;;;;;;6.36;100.00;100200.25;5284036;28;20043;-71
2024/01/04 10:19:53;;;;;;;7.07;3.77;;;;;;;6.34;100.00;100203.72;5283186;28;20025;-71
2024/01/04 10:22:24;;;;;;;8.87;4.13;;;;;;;6.34;100.00;100216.66;5283165;28;20067;-72
2024/01/04 10:25:08;;;;;;;6.20;3.80;;;;;;;6.29;100.00;100211.50;5284350;28;20033;-71
2024/01/04 10:27:40;;;;;;;6.47;3.50;;;;;;;6.29;100.00;100208.06;5283607;28;20029;-71
2024/01/04 10:30:11;;;;;;;10.63;4.07;;;;;;;6.25;100.00;100208.91;5283479;28;20039;-72
2024/01/04 10:32:48;;;;;;;8.17;3.77;;;;;;;6.26;100.00;100210.66;5283551;28;20480;-72
2024/01/04 10:35:27;;;;;;;4.45;3.30;;;;;;;6.27;100.00;100213.22;5285759;28;20028;-71
2024/01/04 10:38:01;;;;;;;5.07;3.45;;;;;;;6.27;100.00;100213.22;5283376;28;20047;-72
2024/01/04 10:40:32;;;;;;;5.97;3.00;;;;;;;6.31;100.00;100211.47;5283402;28;20032;-72
2024/01/04 10:43:03;;;;;;;7.13;2.77;;;;;;;6.33;100.00;100217.53;5283285;28;20025;-72
2024/01/04 10:45:36;;;;;;;4.35;2.65;;;;;;;6.33;100.00;100217.53;5283107;28;20058;-72
2024/01/04 10:48:14;;;;;;;3.90;2.23;;;;;;;6.35;100.00;100223.56;5283992;28;20403;-73
2024/01/04 10:50:45;;;;;;;5.88;2.10;;;;;;;6.35;100.00;100216.66;5283031;28;20040;-72
2024/01/04 10:53:17;;;;;;;4.03;2.20;;;;;;;6.41;100.00;100220.94;5283205;28;20028;-72
2024/01/04 10:55:53;;;;;;;3.15;2.15;;;;;;;6.43;100.00;100210.59;5283736;28;20063;-72
2024/01/04 10:58:25;;;;;;;4.55;1.98;;;;;;;6.44;100.00;100213.16;5283604;28;20037;-72
2024/01/04 11:00:57;;;;;;;2.80;1.80;;;;;;;6.49;100.00;100228.69;5283519;28;20467;-72
2024/01/04 11:03:30;;;;;;;4.63;1.90;;;;;;;6.52;100.00;100228.63;5283205;28;20081;-72
2024/01/04 11:06:03;;;;;;;4.38;1.98;;;;;;;6.61;100.00;100226.00;5283105;28;20107;-72
2024/01/04 11:08:38;;;;;;;3.53;2.15;;;;;;;6.84;100.00;100225.88;5283733;28;20137;-72
2024/01/04 11:11:11;;;;;;;6.88;2.33;;;;;;;6.93;100.00;100233.56;5283417;28;20051;-72
2024/01/04 11:13:42;;;;;;;4.93;2.13;;;;;;;6.83;100.00;100226.75;5283444;28;20056;-72
2024/01/04 11:16:39;;;;;;;4.27;2.40;;;;;;;6.79;100.00;100232.81;5282828;28;20476;-71
2024/01/04 11:19:29;;;;;;;7.28;3.20;;;;;;;6.78;100.00;100227.63;5283993;28;20340;-72
2024/01/04 11:22:21;;;;;;;3.88;2.30;;;;;;;6.77;100.00;100223.34;5283181;28;20028;-74
2024/01/04 11:25:23;;;;;;;5.45;2.10;;;;;;;6.86;100.00;100229.31;5283754;28;20113;-72
2024/01/04 11:27:55;;;;;;;4.78;1.90;;;;;;;6.93;100.00;100232.72;5283456;28;20111;-73
2024/01/04 11:30:27;;;;;;;4.93;2.10;;;;;;;6.87;100.00;100235.34;5283540;28;20177;-72
2024/01/04 11:32:59;;;;;;;4.32;1.63;;;;;;;6.83;100.00;100231.94;5284072;28;20041;-73
2024/01/04 11:35:37;;;;;;;3.70;1.20;;;;;;;6.73;100.00;100225.94;5282098;28;20050;-73
2024/01/04 11:38:08;;;;;;;1.95;1.10;;;;;;;6.67;100.00;100227.72;5283260;28;20036;-72
2024/01/04 11:40:49;;;;;;;5.43;1.40;;;;;;;6.60;100.00;100226.00;5283211;28;20036;-72
2024/01/04 11:43:20;;;;;;;3.30;1.13;;;;;;;6.57;100.00;100227.75;5283260;28;20058;-72
2024/01/04 11:45:52;;;;;;;5.47;1.43;;;;;;;6.55;100.00;100223.44;5282154;28;20115;-72
2024/01/04 11:48:28;;;;;;;3.10;1.70;;;;;;;6.58;100.00;100220.84;5283034;28;20105;-72